Time;durP1;ratioP1;P1;durP2;ratioP2;P2;SDS_P1;SDS_P2;PMS_P1;PMS_P2;Temp;Humidity;BMP_temperature;BMP_pressure;BME280_temperature;BME280_humidity;BME280_pressure;Samples;Min_cycle;Max_cycle;Signal;HPM_P1;HPM_P2
2022/06/18 00:00:02;;;;;;;;;;;;;;;28.20;48.58;99107.66;2053040;28;19930;-74
2022/06/18 00:01:02;;;;;;;;;;;;;;;28.19;48.87;99104.09;2047354;28;20352;-73
2022/06/18 00:02:06;;;;;;;;;;;;;;;28.18;48.87;99099.72;2046251;28;19930;-74
2022/06/18 00:03:09;;;;;;;;;;;;;;;28.20;48.97;99099.47;2051043;28;19937;-74
2022/06/18 00:04:13;;;;;;;;;;;;;;;28.20;49.11;99097.56;2047541;28;20164;-74
2022/06/18 00:05:15;;;;;;;;;;;;;;;28.23;49.46;99107.16;2051074;28;19930;-74
2022/06/18 00:06:16;;;;;;;;;;;;;;;28.23;49.76;99105.25;2051131;28;19926;-74
2022/06/18 00:07:20;;;;;;;;;;;;;;;28.23;49.97;99098.97;2045370;28;20638;-75
2022/06/18 00:08:22;;;;;;;;;;;;;;;28.22;49.92;99100.88;2044958;28;19930;-74
2022/06/18 00:09:26;;;;;;;;;;;;;;;28.22;49.90;99100.88;2050785;28;19937;-74
2022/06/18 00:10:29;;;;;;;;;;;;;;;28.23;50.06;99096.25;2052074;28;19930;-74
2022/06/18 00:14:09;;;;;;;;;;;;;;;28.22;50.48;99103.59;2050058;28;21243;-74
2022/06/18 00:15:13;;;;;;;;;;;;;;;28.22;50.48;99100.88;2046688;28;19937;-74
2022/06/18 00:16:17;;;;;;;;;;;;;;;28.22;50.21;99089.13;2044691;28;19930;-74
2022/06/18 00:17:19;;;;;;;;;;;;;;;28.21;50.20;99099.22;2052038;28;19937;-74
2022/06/18 00:18:19;;;;;;;;;;;;;;;28.22;50.38;99097.31;2050069;28;19933;-74
2022/06/18 00:19:22;;;;;;;;;;;;;;;28.23;50.18;99102.50;2049374;28;19934;-75
2022/06/18 00:20:27;;;;;;;;;;;;;;;28.22;50.13;99100.03;2048105;28;20272;-74
2022/06/18 00:21:28;;;;;;;;;;;;;;;28.21;50.27;99099.22;2046022;28;20041;-74
2022/06/18 00:22:30;;;;;;;;;;;;;;;28.22;50.36;99109.06;2047312;28;19930;-74
2022/06/18 00:23:31;;;;;;;;;;;;;;;28.22;50.38;99100.88;2050404;28;20140;-74
2022/06/18 00:24:32;;;;;;;;;;;;;;;28.22;50.32;99100.03;2051517;28;20044;-74
2022/06/18 00:25:33;;;;;;;;;;;;;;;28.22;50.41;99106.34;2048441;28;20310;-74
2022/06/18 00:26:35;;;;;;;;;;;;;;;28.22;50.34;99109.06;2045273;28;19942;-74
2022/06/18 00:27:35;;;;;;;;;;;;;;;28.22;50.48;99106.34;2051906;28;19934;-74
2022/06/18 00:28:37;;;;;;;;;;;;;;;28.21;50.47;99107.41;2046147;28;20701;-74
2022/06/18 00:29:38;;;;;;;;;;;;;;;28.22;50.48;99109.06;2048426;28;19930;-74
2022/06/18 00:30:41;;;;;;;;;;;;;;;28.21;50.53;99107.41;2050768;28;19930;-74
2022/06/18 00:31:42;;;;;;;;;;;;;;;28.22;50.65;99110.94;2052971;28;20430;-74
2022/06/18 00:32:43;;;;;;;;;;;;;;;28.22;50.27;99105.47;2049250;28;20482;-74
2022/06/18 00:33:44;;;;;;;;;;;;;;;28.22;50.65;99109.06;2046440;28;19995;-74
2022/06/18 00:34:47;;;;;;;;;;;;;;;28.21;50.71;99104.66;2049317;28;19983;-74
2022/06/18 00:35:49;;;;;;;;;;;;;;;28.21;50.71;99104.66;2047725;28;19926;-74
2022/06/18 00:36:51;;;;;;;;;;;;;;;28.22;50.46;99100.88;2041644;28;20371;-74
2022/06/18 00:37:54;;;;;;;;;;;;;;;28.21;50.62;99101.94;2039061;28;19994;-74
2022/06/18 00:38:55;;;;;;;;;;;;;;;28.22;50.59;99098.16;2046566;28;20418;-75
2022/06/18 00:39:56;;;;;;;;;;;;;;;28.23;50.75;99102.50;2045811;28;19934;-74
2022/06/18 00:40:59;;;;;;;;;;;;;;;28.22;51.01;99105.47;2049825;28;20027;-74
2022/06/18 00:42:02;;;;;;;;;;;;;;;28.21;50.74;99104.66;2047974;28;20093;-74
2022/06/18 00:43:04;;;;;;;;;;;;;;;28.22;50.74;99100.03;2046727;28;19938;-74
2022/06/18 00:44:07;;;;;;;;;;;;;;;28.22;50.54;99100.03;2046474;28;19992;-74
2022/06/18 00:45:12;;;;;;;;;;;;;;;28.21;50.61;99101.13;2041400;28;20311;-75
2022/06/18 00:46:15;;;;;;;;;;;;;;;28.22;50.58;99091.84;2049201;28;19930;-74
2022/06/18 00:47:20;;;;;;;;;;;;;;;28.21;50.53;99103.84;2048354;28;19936;-74
2022/06/18 00:48:23;;;;;;;;;;;;;;;28.22;50.63;99100.03;2050832;28;20347;-74
2022/06/18 00:49:28;;;;;;;;;;;;;;;28.21;50.61;99093.75;2047862;28;19929;-74
2022/06/18 00:50:33;;;;;;;;;;;;;;;28.22;50.68;99100.03;2047639;28;19930;-74
2022/06/18 00:51:38;;;;;;;;;;;;;;;28.21;50.87;99101.94;2052887;28;19995;-74
2022/06/18 00:52:39;;;;;;;;;;;;;;;28.22;50.90;99097.31;2042862;28;19930;-74
2022/06/18 00:53:45;;;;;;;;;;;;;;;28.22;50.81;99095.44;2041121;28;19929;-74
2022/06/18 00:54:48;;;;;;;;;;;;;;;28.21;50.79;99092.94;2049125;28;19941;-74
2022/06/18 00:55:54;;;;;;;;;;;;;;;28.21;50.45;99096.47;2049049;28;20809;-73
2022/06/18 00:57:00;;;;;;;;;;;;;;;28.20;50.60;99086.66;2052212;28;20616;-75
2022/06/18 00:58:03;;;;;;;;;;;;;;;28.21;50.71;99082.84;2049848;28;20602;-74
2022/06/18 00:59:07;;;;;;;;;;;;;;;28.20;50.87;99086.66;2048441;28;19927;-74
2022/06/18 01:00:11;;;;;;;;;;;;;;;28.20;50.82;99083.13;2048280;28;19969;-74
2022/06/18 01:01:14;;;;;;;;;;;;;;;28.19;50.59;99085.00;2051041;28;19930;-74
2022/06/18 01:02:19;;;;;;;;;;;;;;;28.20;50.75;99091.31;2046584;28;19942;-74
2022/06/18 01:03:25;;;;;;;;;;;;;;;28.19;50.51;99093.19;2047556;28;19930;-74
2022/06/18 01:04:28;;;;;;;;;;;;;;;28.19;50.58;99084.19;2045500;28;20387;-74
2022/06/18 01:05:35;;;;;;;;;;;;;;;28.18;50.26;99097.00;2046994;28;20743;-74
2022/06/18 01:06:37;;;;;;;;;;;;;;;28.18;50.08;99090.72;2050529;28;19933;-74
2022/06/18 01:07:39;;;;;;;;;;;;;;;28.18;50.31;99088.81;2049131;28;19941;-75
2022/06/18 01:08:40;;;;;;;;;;;;;;;28.17;50.35;99080.91;2044428;28;19934;-74
2022/06/18 01:09:43;;;;;;;;;;;;;;;28.17;50.19;99080.91;2048335;28;21003;-74
2022/06/18 01:10:47;;;;;;;;;;;;;;;28.17;50.21;99086.38;2045988;28;19966;-74
2022/06/18 01:11:49;;;;;;;;;;;;;;;28.17;50.32;99084.44;2046715;28;19934;-72
2022/06/18 01:12:49;;;;;;;;;;;;;;;28.18;50.16;99086.09;2048674;28;20368;-74
2022/06/18 01:13:51;;;;;;;;;;;;;;;28.18;50.28;99090.72;2050520;28;21382;-74
2022/06/18 01:14:56;;;;;;;;;;;;;;;28.17;50.60;99087.19;2049356;28;19930;-74
2022/06/18 01:15:58;;;;;;;;;;;;;;;28.17;50.33;99081.72;2047637;28;19934;-74
2022/06/18 01:17:01;;;;;;;;;;;;;;;28.16;50.31;99090.97;2048515;28;20393;-74
2022/06/18 01:18:03;;;;;;;;;;;;;;;28.17;50.48;99092.63;2047796;28;20350;-74
2022/06/18 01:19:09;;;;;;;;;;;;;;;28.17;50.67;99086.38;2051673;28;19937;-74
2022/06/18 01:20:12;;;;;;;;;;;;;;;28.17;50.43;99086.38;2045917;28;20032;-74
2022/06/18 01:21:19;;;;;;;;;;;;;;;28.16;50.29;99088.25;2048244;28;20413;-75
2022/06/18 01:22:30;;;;;;;;;;;;;;;28.18;50.35;99085.28;2050910;28;19988;-74
2022/06/18 01:23:34;;;;;;;;;;;;;;;28.17;50.48;99087.19;2046064;28;20398;-74
2022/06/18 01:24:39;;;;;;;;;;;;;;;28.17;50.68;99092.63;2050311;28;19937;-74
2022/06/18 01:25:39;;;;;;;;;;;;;;;28.17;51.11;99089.91;2052150;28;19934;-74
2022/06/18 01:26:43;;;;;;;;;;;;;;;28.17;50.64;99087.19;2045863;28;20582;-75
2022/06/18 01:27:43;;;;;;;;;;;;;;;28.17;50.74;99089.91;2046750;28;20010;-74
2022/06/18 01:28:45;;;;;;;;;;;;;;;28.17;50.52;99091.81;2050214;28;20457;-74
2022/06/18 01:29:45;;;;;;;;;;;;;;;28.16;50.56;99090.16;2046536;28;20044;-74
2022/06/18 01:30:47;;;;;;;;;;;;;;;28.16;50.58;99084.69;2047373;28;19940;-74
2022/06/18 01:31:49;;;;;;;;;;;;;;;28.16;50.68;99084.69;2031721;28;19944;-74
2022/06/18 01:32:52;;;;;;;;;;;;;;;28.16;50.34;99087.41;2046647;28;19934;-74
2022/06/18 01:33:54;;;;;;;;;;;;;;;28.16;50.36;99085.50;2050919;28;19929;-75
2022/06/18 01:34:55;;;;;;;;;;;;;;;28.15;50.55;99083.88;2050064;28;19930;-74
2022/06/18 01:35:56;;;;;;;;;;;;;;;28.16;50.57;99090.16;2051518;28;20330;-74
2022/06/18 01:36:59;;;;;;;;;;;;;;;28.15;50.51;99083.88;2050274;28;19929;-74
2022/06/18 01:38:00;;;;;;;;;;;;;;;28.15;50.75;99089.34;2044875;28;19993;-74
2022/06/18 01:39:03;;;;;;;;;;;;;;;28.15;50.58;99085.78;2049937;28;19934;-74
2022/06/18 01:40:08;;;;;;;;;;;;;;;28.15;50.55;99091.25;2048510;28;20624;-75
2022/06/18 01:42:34;;;;;;;;;;;;;;;28.14;50.62;99090.41;2046244;28;19926;-74
2022/06/18 01:43:35;;;;;;;;;;;;;;;28.14;50.54;99093.16;2045574;28;20395;-74
2022/06/18 01:44:40;;;;;;;;;;;;;;;28.14;50.32;99087.69;2048928;28;20024;-74
2022/06/18 01:47:04;;;;;;;;;;;;;;;28.15;50.41;99088.50;2049469;28;19926;-74
2022/06/18 01:48:06;;;;;;;;;;;;;;;28.15;50.56;99088.50;2049848;28;19930;-74
2022/06/18 01:49:11;;;;;;;;;;;;;;;28.15;50.73;99089.34;2046122;28;19933;-74
2022/06/18 01:50:14;;;;;;;;;;;;;;;28.14;50.71;99081.38;2047047;28;19953;-75
2022/06/18 01:51:17;;;;;;;;;;;;;;;28.15;50.90;99083.88;2047585;28;20012;-74
2022/06/18 01:52:20;;;;;;;;;;;;;;;28.15;50.75;99085.78;2046949;28;19926;-74
2022/06/18 01:53:24;;;;;;;;;;;;;;;28.13;50.75;99086.03;2047411;28;20355;-74
2022/06/18 01:54:27;;;;;;;;;;;;;;;28.13;50.30;99079.75;2049150;28;19957;-75
2022/06/18 01:55:31;;;;;;;;;;;;;;;28.12;49.75;99078.94;2046967;28;19999;-75
2022/06/18 01:56:34;;;;;;;;;;;;;;;28.13;49.68;99082.47;2049890;28;19930;-75
2022/06/18 01:57:37;;;;;;;;;;;;;;;28.12;50.05;99078.13;2051351;28;19930;-75
2022/06/18 01:58:41;;;;;;;;;;;;;;;28.13;50.34;99085.22;2042785;28;19952;-74
2022/06/18 01:59:46;;;;;;;;;;;;;;;28.12;50.29;99080.84;2051905;28;20387;-75
2022/06/18 02:00:49;;;;;;;;;;;;;;;28.13;50.44;99090.66;2045286;28;20085;-72
2022/06/18 02:01:51;;;;;;;;;;;;;;;28.13;50.65;99080.56;2052227;28;19993;-74
2022/06/18 02:02:52;;;;;;;;;;;;;;;28.13;50.43;99080.56;2043330;28;20459;-74
2022/06/18 02:03:54;;;;;;;;;;;;;;;28.14;50.24;99079.50;2051795;28;19979;-74
2022/06/18 02:04:55;;;;;;;;;;;;;;;28.14;50.50;99075.94;2049484;28;20383;-74
2022/06/18 02:05:56;;;;;;;;;;;;;;;28.13;50.19;99077.84;2053488;28;20052;-74
2022/06/18 02:06:57;;;;;;;;;;;;;;;28.13;50.24;99074.31;2049411;28;19929;-75
2022/06/18 02:07:59;;;;;;;;;;;;;;;28.14;50.44;99081.38;2050831;28;19930;-74
2022/06/18 02:09:01;;;;;;;;;;;;;;;28.15;50.26;99081.16;2047700;28;20398;-74
2022/06/18 02:10:04;;;;;;;;;;;;;;;28.14;50.56;99074.06;2051636;28;19937;-74
2022/06/18 02:11:07;;;;;;;;;;;;;;;28.15;50.26;99078.41;2045603;28;19933;-74
2022/06/18 02:12:14;;;;;;;;;;;;;;;28.14;50.37;99070.47;2050719;28;19934;-74
2022/06/18 02:13:15;;;;;;;;;;;;;;;28.14;50.44;99078.66;2048455;28;19938;-75
2022/06/18 02:14:18;;;;;;;;;;;;;;;28.14;50.70;99076.78;2047416;28;20496;-75
2022/06/18 02:15:22;;;;;;;;;;;;;;;28.14;50.37;99076.78;2047929;28;19968;-75
2022/06/18 02:16:25;;;;;;;;;;;;;;;28.14;50.44;99076.78;2047297;28;19930;-75
2022/06/18 02:17:27;;;;;;;;;;;;;;;28.13;50.71;99072.38;2048578;28;19934;-75
2022/06/18 02:18:30;;;;;;;;;;;;;;;28.14;50.47;99076.78;2051983;28;19936;-75
2022/06/18 02:19:32;;;;;;;;;;;;;;;28.14;50.65;99082.25;2054061;28;20112;-75
2022/06/18 02:20:35;;;;;;;;;;;;;;;28.14;50.63;99078.66;2049977;28;20430;-75
2022/06/18 02:21:39;;;;;;;;;;;;;;;28.14;50.83;99078.66;2047001;28;19930;-75
2022/06/18 02:22:42;;;;;;;;;;;;;;;28.13;50.52;99083.31;2047557;28;20346;-75
2022/06/18 02:23:43;;;;;;;;;;;;;;;28.13;50.65;99083.31;2047452;28;20565;-74
2022/06/18 02:24:45;;;;;;;;;;;;;;;28.12;50.82;99081.66;2048171;28;20021;-74
2022/06/18 02:25:46;;;;;;;;;;;;;;;28.13;50.87;99083.31;2047886;28;19945;-75
2022/06/18 02:26:49;;;;;;;;;;;;;;;28.13;50.57;99079.75;2046560;28;19960;-75
2022/06/18 02:27:52;;;;;;;;;;;;;;;28.13;50.85;99082.47;2050275;28;20052;-75
2022/06/18 02:28:55;;;;;;;;;;;;;;;28.12;50.64;99086.31;2049108;28;19934;-75
2022/06/18 02:29:56;;;;;;;;;;;;;;;28.11;50.72;99088.22;2036784;28;21013;-75
2022/06/18 02:30:58;;;;;;;;;;;;;;;28.12;50.74;99084.38;2045061;28;19930;-75
2022/06/18 02:32:00;;;;;;;;;;;;;;;28.12;50.89;99078.13;2045246;28;22697;-75
2022/06/18 02:33:07;;;;;;;;;;;;;;;28.11;50.84;99088.22;2048582;28;19930;-74
2022/06/18 02:34:10;;;;;;;;;;;;;;;28.11;50.69;99088.22;2050390;28;19945;-75
2022/06/18 02:35:13;;;;;;;;;;;;;;;28.11;50.83;99085.47;2046098;28;19930;-75
2022/06/18 02:36:14;;;;;;;;;;;;;;;28.11;51.09;99085.47;2043720;28;20233;-75
2022/06/18 02:37:19;;;;;;;;;;;;;;;28.11;50.77;99087.38;2052251;28;19937;-74
2022/06/18 02:38:22;;;;;;;;;;;;;;;28.11;50.83;99085.47;2051279;28;19937;-74
2022/06/18 02:39:27;;;;;;;;;;;;;;;28.12;50.48;99086.31;2049796;28;19933;-74
2022/06/18 02:40:30;;;;;;;;;;;;;;;28.12;50.61;99089.03;2048163;28;19930;-74
2022/06/18 02:41:31;;;;;;;;;;;;;;;28.12;50.81;99089.84;2049423;28;19999;-75
2022/06/18 02:42:36;;;;;;;;;;;;;;;28.12;50.73;99097.22;2047028;28;19934;-75
2022/06/18 02:43:38;;;;;;;;;;;;;;;28.11;51.08;99096.38;2047881;28;19934;-74
2022/06/18 02:44:41;;;;;;;;;;;;;;;28.10;51.03;99089.28;2047727;28;19930;-75
2022/06/18 02:45:43;;;;;;;;;;;;;;;28.10;51.14;99092.00;2045554;28;19930;-75
2022/06/18 02:46:45;;;;;;;;;;;;;;;28.10;50.92;99092.00;2049105;28;20158;-74
2022/06/18 02:47:46;;;;;;;;;;;;;;;28.10;50.64;99097.44;2049851;28;20092;-75
2022/06/18 02:48:48;;;;;;;;;;;;;;;28.11;50.61;99096.38;2049869;28;19941;-74
2022/06/18 02:49:51;;;;;;;;;;;;;;;28.12;50.80;99103.47;2047849;28;20395;-74
2022/06/18 02:50:53;;;;;;;;;;;;;;;28.11;51.18;99099.13;2048508;28;19961;-74
2022/06/18 02:51:54;;;;;;;;;;;;;;;28.11;51.11;99104.56;2050310;28;20382;-74
2022/06/18 02:52:58;;;;;;;;;;;;;;;28.10;51.30;99104.81;2048545;28;19929;-75
2022/06/18 02:53:59;;;;;;;;;;;;;;;28.11;50.91;99109.19;2043834;28;19937;-74
2022/06/18 02:55:02;;;;;;;;;;;;;;;28.10;50.94;99102.91;2053121;28;19929;-76
2022/06/18 02:56:05;;;;;;;;;;;;;;;28.12;50.86;99111.66;2053137;28;20678;-75
2022/06/18 02:57:09;;;;;;;;;;;;;;;28.12;50.75;99113.56;2048452;28;19960;-75
2022/06/18 02:58:13;;;;;;;;;;;;;;;28.10;50.76;99111.09;2050911;28;19973;-75
2022/06/18 02:59:14;;;;;;;;;;;;;;;28.11;50.97;99111.91;2048228;28;19941;-75
2022/06/18 03:00:15;;;;;;;;;;;;;;;28.11;51.01;99110.03;2049304;28;20029;-74
2022/06/18 03:01:18;;;;;;;;;;;;;;;28.11;50.87;99115.47;2044324;28;19938;-75
2022/06/18 03:02:19;;;;;;;;;;;;;;;28.11;50.87;99114.63;2047645;28;19937;-75
2022/06/18 03:03:22;;;;;;;;;;;;;;;28.11;50.84;99118.22;2049875;28;19936;-75
2022/06/18 03:04:22;;;;;;;;;;;;;;;28.12;51.05;99121.75;2049244;28;20030;-75
2022/06/18 03:05:25;;;;;;;;;;;;;;;28.10;50.95;99113.00;2048662;28;19930;-75
2022/06/18 03:06:27;;;;;;;;;;;;;;;28.11;51.26;99120.94;2051308;28;20381;-75
2022/06/18 03:07:29;;;;;;;;;;;;;;;28.11;51.12;99120.94;2049598;28;19938;-74
2022/06/18 03:08:30;;;;;;;;;;;;;;;28.12;51.28;99128.03;2046529;28;20401;-75
2022/06/18 03:12:06;;;;;;;;;;;;;;;28.11;50.91;99131.84;2045934;28;19930;-75
2022/06/18 03:12:11;;;;;;;;;;;;;;;28.12;50.97;99132.66;2047773;28;19930;-74
2022/06/18 03:13:13;;;;;;;;;;;;;;;28.12;50.70;99130.75;2047525;28;20020;-75
2022/06/18 03:14:16;;;;;;;;;;;;;;;28.11;51.24;99129.13;2044994;28;19976;-74
2022/06/18 03:15:17;;;;;;;;;;;;;;;28.09;51.11;99125.81;2051213;28;19937;-74
2022/06/18 03:16:21;;;;;;;;;;;;;;;28.09;50.66;99125.81;2047577;28;20009;-74
2022/06/18 03:17:21;;;;;;;;;;;;;;;28.11;50.83;99136.44;2045889;28;19929;-75
2022/06/18 03:18:24;;;;;;;;;;;;;;;28.10;50.84;99127.44;2048604;28;19930;-75
2022/06/18 03:19:30;;;;;;;;;;;;;;;28.07;51.07;99131.50;2046069;28;20029;-75
2022/06/18 03:20:35;;;;;;;;;;;;;;;28.10;50.98;99134.81;2050128;28;19937;-75
2022/06/18 03:21:38;;;;;;;;;;;;;;;28.09;51.10;99127.72;2049513;28;19930;-75
2022/06/18 03:22:40;;;;;;;;;;;;;;;28.09;50.89;99131.25;2047000;28;19930;-75
2022/06/18 03:23:41;;;;;;;;;;;;;;;28.08;50.85;99132.31;2051696;28;20016;-75
2022/06/18 03:24:43;;;;;;;;;;;;;;;28.08;51.03;99129.59;2048812;28;19930;-75
2022/06/18 03:25:43;;;;;;;;;;;;;;;28.09;50.92;99130.44;2049176;28;19934;-75
2022/06/18 03:26:45;;;;;;;;;;;;;;;28.08;50.70;99132.31;2047777;28;19934;-74
2022/06/18 03:27:46;;;;;;;;;;;;;;;28.09;51.06;99127.72;2048081;28;20471;-74
2022/06/18 03:28:49;;;;;;;;;;;;;;;28.08;51.34;99135.03;2045563;28;22660;-75
2022/06/18 03:29:52;;;;;;;;;;;;;;;28.07;51.08;99131.50;2047936;28;20343;-75
2022/06/18 03:30:54;;;;;;;;;;;;;;;28.07;50.79;99131.50;2044797;28;19934;-75
2022/06/18 03:31:54;;;;;;;;;;;;;;;28.07;50.84;99127.97;2047190;28;19930;-74
2022/06/18 03:32:56;;;;;;;;;;;;;;;28.06;50.73;99137.22;2046555;28;19930;-74
2022/06/18 03:33:57;;;;;;;;;;;;;;;28.05;50.84;99128.22;2048391;28;20183;-75
2022/06/18 03:34:58;;;;;;;;;;;;;;;28.05;50.60;99132.84;2044860;28;20160;-75
2022/06/18 03:36:01;;;;;;;;;;;;;;;28.04;50.17;99133.91;2049671;28;20537;-75
2022/06/18 03:37:02;;;;;;;;;;;;;;;28.04;50.52;99128.47;2046587;28;20328;-74
2022/06/18 03:38:03;;;;;;;;;;;;;;;28.05;50.85;99127.38;2045929;28;19926;-74
2022/06/18 03:39:05;;;;;;;;;;;;;;;28.04;50.59;99132.00;2044749;28;21094;-74
2022/06/18 03:40:07;;;;;;;;;;;;;;;28.06;50.65;99129.03;2048565;28;20064;-74
2022/06/18 03:41:09;;;;;;;;;;;;;;;28.05;50.76;99130.94;2049331;28;19938;-75
2022/06/18 03:42:10;;;;;;;;;;;;;;;28.05;50.83;99130.09;2049189;28;19956;-75
2022/06/18 03:43:12;;;;;;;;;;;;;;;28.05;50.99;99128.22;2045141;28;20042;-75
2022/06/18 03:44:15;;;;;;;;;;;;;;;28.06;50.90;99129.03;2046979;28;19926;-74
2022/06/18 03:45:16;;;;;;;;;;;;;;;28.05;50.90;99128.22;2043876;28;19937;-75
2022/06/18 03:46:18;;;;;;;;;;;;;;;28.05;51.01;99125.50;2047392;28;20018;-75
2022/06/18 03:47:18;;;;;;;;;;;;;;;28.04;51.08;99123.84;2045645;28;19927;-74
2022/06/18 03:48:22;;;;;;;;;;;;;;;28.04;50.71;99126.56;2048435;28;20306;-75
2022/06/18 03:49:24;;;;;;;;;;;;;;;28.03;50.22;99124.09;2046539;28;19931;-75
2022/06/18 03:50:25;;;;;;;;;;;;;;;28.03;50.07;99129.56;2048074;28;19926;-75
2022/06/18 03:51:26;;;;;;;;;;;;;;;28.02;49.99;99131.44;2046972;28;19934;-75
2022/06/18 03:52:29;;;;;;;;;;;;;;;28.02;49.77;99125.97;2049472;28;19953;-75
2022/06/18 03:53:29;;;;;;;;;;;;;;;28.02;49.72;99122.44;2050033;28;19930;-75
2022/06/18 03:54:31;;;;;;;;;;;;;;;28.03;49.70;99124.09;2047617;28;19929;-74
2022/06/18 03:55:32;;;;;;;;;;;;;;;28.02;49.73;99125.16;2047370;28;19930;-74
2022/06/18 03:56:33;;;;;;;;;;;;;;;28.02;49.67;99123.25;2048616;28;20186;-75
2022/06/18 03:57:34;;;;;;;;;;;;;;;28.02;49.89;99131.44;2049775;28;19930;-75
2022/06/18 03:58:35;;;;;;;;;;;;;;;28.02;49.78;99128.72;2053694;28;20382;-75
2022/06/18 03:59:37;;;;;;;;;;;;;;;28.03;50.13;99129.56;2047821;28;21289;-74
2022/06/18 04:00:39;;;;;;;;;;;;;;;28.03;49.99;99135.00;2045587;28;19930;-75
2022/06/18 04:01:40;;;;;;;;;;;;;;;28.03;50.20;99127.66;2050263;28;20547;-74
2022/06/18 04:02:41;;;;;;;;;;;;;;;28.04;50.45;99133.91;2048386;28;19929;-75
2022/06/18 04:03:42;;;;;;;;;;;;;;;28.04;50.37;99136.66;2047296;28;20944;-74
2022/06/18 04:04:44;;;;;;;;;;;;;;;28.03;50.57;99124.91;2043117;28;20176;-74
2022/06/18 04:05:45;;;;;;;;;;;;;;;28.04;50.41;99132.00;2046424;28;19930;-75
2022/06/18 04:06:47;;;;;;;;;;;;;;;28.04;50.62;99136.66;2047832;28;19934;-75
2022/06/18 04:07:47;;;;;;;;;;;;;;;28.02;50.46;99139.63;2048502;28;19930;-71
2022/06/18 04:08:49;;;;;;;;;;;;;;;28.03;50.25;99143.19;2047908;28;20013;-74
2022/06/18 04:09:50;;;;;;;;;;;;;;;28.02;50.67;99142.34;2046298;28;19930;-74
2022/06/18 04:10:52;;;;;;;;;;;;;;;28.02;50.36;99142.34;2044704;28;20309;-74
2022/06/18 04:11:52;;;;;;;;;;;;;;;28.02;50.85;99149.69;2049159;28;20116;-74
2022/06/18 04:12:54;;;;;;;;;;;;;;;28.03;50.59;99148.66;2048976;28;19926;-74
2022/06/18 04:13:54;;;;;;;;;;;;;;;28.03;50.49;99145.91;2044377;28;19934;-75
2022/06/18 04:14:57;;;;;;;;;;;;;;;28.03;50.71;99152.19;2047034;28;19969;-74
2022/06/18 04:15:58;;;;;;;;;;;;;;;28.04;50.15;99147.56;2046615;28;19934;-74
2022/06/18 04:16:59;;;;;;;;;;;;;;;28.03;50.32;99149.47;2045589;28;20037;-74
2022/06/18 04:18:00;;;;;;;;;;;;;;;28.03;50.58;99145.91;2045540;28;20074;-74
2022/06/18 04:19:02;;;;;;;;;;;;;;;28.03;50.59;99157.66;2043568;28;19952;-74
2022/06/18 04:20:03;;;;;;;;;;;;;;;28.02;50.50;99158.69;2049032;28;20412;-74
2022/06/18 04:21:04;;;;;;;;;;;;;;;28.03;50.51;99154.91;2048829;28;19938;-75
2022/06/18 04:22:05;;;;;;;;;;;;;;;28.03;50.36;99151.38;2050011;28;19937;-75
2022/06/18 04:23:07;;;;;;;;;;;;;;;28.02;50.53;99155.97;2045933;28;19933;-75
2022/06/18 04:24:07;;;;;;;;;;;;;;;28.03;50.51;99154.09;2046864;28;19934;-75
2022/06/18 04:25:11;;;;;;;;;;;;;;;28.02;50.69;99155.97;2046975;28;21110;-75
2022/06/18 04:26:12;;;;;;;;;;;;;;;28.03;50.63;99156.81;2045476;28;20480;-75
2022/06/18 04:27:14;;;;;;;;;;;;;;;28.01;50.61;99151.63;2046462;28;20398;-75
2022/06/18 04:28:16;;;;;;;;;;;;;;;28.03;50.77;99156.81;2044302;28;23575;-75
2022/06/18 04:29:17;;;;;;;;;;;;;;;28.01;50.68;99158.97;2048633;28;19934;-74
2022/06/18 04:30:19;;;;;;;;;;;;;;;28.03;50.60;99162.28;2049544;28;19937;-75
2022/06/18 04:31:21;;;;;;;;;;;;;;;28.02;50.48;99155.16;2049274;28;19937;-75
2022/06/18 04:32:21;;;;;;;;;;;;;;;28.01;50.64;99148.06;2050530;28;19965;-75
2022/06/18 04:33:23;;;;;;;;;;;;;;;28.01;50.98;99153.53;2050123;28;20641;-76
2022/06/18 04:34:24;;;;;;;;;;;;;;;28.03;50.75;99154.09;2046593;28;20579;-76
2022/06/18 04:35:26;;;;;;;;;;;;;;;28.01;50.69;99148.06;2046691;28;19988;-74
2022/06/18 04:36:31;;;;;;;;;;;;;;;28.01;50.53;99154.34;2045738;28;19941;-73
2022/06/18 04:37:32;;;;;;;;;;;;;;;28.02;50.81;99155.16;2046771;28;20405;-73
2022/06/18 04:38:34;;;;;;;;;;;;;;;28.02;50.83;99155.16;2047788;28;19941;-74
2022/06/18 04:39:35;;;;;;;;;;;;;;;28.02;50.71;99146.97;2051076;28;19930;-74
2022/06/18 04:40:36;;;;;;;;;;;;;;;28.03;51.01;99151.38;2050990;28;19930;-73
2022/06/18 04:41:37;;;;;;;;;;;;;;;28.02;50.91;99145.06;2048012;28;20832;-73
2022/06/18 04:42:38;;;;;;;;;;;;;;;28.02;50.89;99147.78;2052207;28;20242;-74
2022/06/18 04:43:39;;;;;;;;;;;;;;;28.03;51.04;99145.91;2049424;28;19930;-73
2022/06/18 04:44:40;;;;;;;;;;;;;;;28.02;51.17;99149.69;2049830;28;20293;-73
2022/06/18 04:45:42;;;;;;;;;;;;;;;28.01;50.92;99148.88;2053837;28;20310;-73
2022/06/18 04:46:44;;;;;;;;;;;;;;;28.01;51.00;99142.63;2049022;28;20555;-72
2022/06/18 04:47:44;;;;;;;;;;;;;;;28.01;50.78;99148.06;2052085;28;19938;-73
2022/06/18 04:48:46;;;;;;;;;;;;;;;28.01;50.84;99153.53;2052712;28;19933;-73
2022/06/18 04:49:46;;;;;;;;;;;;;;;28.02;50.82;99155.97;2052197;28;20435;-74
2022/06/18 04:50:49;;;;;;;;;;;;;;;28.01;50.82;99153.53;2054545;28;20386;-73
2022/06/18 04:51:50;;;;;;;;;;;;;;;28.00;50.97;99152.69;2051349;28;20420;-73
2022/06/18 04:52:51;;;;;;;;;;;;;;;28.01;50.98;99150.78;2053098;28;20446;-73
2022/06/18 04:53:52;;;;;;;;;;;;;;;28.01;51.11;99154.34;2047417;28;19955;-73
2022/06/18 04:54:53;;;;;;;;;;;;;;;28.01;51.12;99156.25;2050535;28;20964;-73
2022/06/18 04:55:54;;;;;;;;;;;;;;;28.00;50.98;99155.44;2052870;28;19930;-73
2022/06/18 04:56:55;;;;;;;;;;;;;;;28.01;50.96;99156.25;2051618;28;19930;-73
2022/06/18 04:57:56;;;;;;;;;;;;;;;28.01;51.00;99162.53;2049773;28;19933;-73
2022/06/18 04:58:57;;;;;;;;;;;;;;;28.01;51.08;99162.53;2050385;28;19940;-73
2022/06/18 04:59:58;;;;;;;;;;;;;;;28.02;50.96;99163.34;2048244;28;19937;-73
2022/06/18 05:01:03;;;;;;;;;;;;;;;28.01;51.53;99161.69;2051926;28;19930;-73
2022/06/18 05:02:05;;;;;;;;;;;;;;;28.02;50.93;99169.59;2053664;28;19929;-73
2022/06/18 05:03:06;;;;;;;;;;;;;;;28.00;51.19;99155.44;2052557;28;19972;-73
2022/06/18 05:04:07;;;;;;;;;;;;;;;28.01;51.08;99164.44;2051464;28;19941;-73
2022/06/18 05:05:12;;;;;;;;;;;;;;;28.01;51.07;99165.25;2051053;28;19934;-73
2022/06/18 05:06:13;;;;;;;;;;;;;;;28.02;50.93;99166.88;2052185;28;19930;-73
2022/06/18 05:07:14;;;;;;;;;;;;;;;28.02;51.31;99166.06;2049581;28;19930;-74
2022/06/18 05:08:15;;;;;;;;;;;;;;;28.01;51.48;99165.25;2050726;28;20162;-74
2022/06/18 05:09:18;;;;;;;;;;;;;;;28.01;51.24;99165.25;2051660;28;19977;-74
2022/06/18 05:10:19;;;;;;;;;;;;;;;28.00;51.24;99165.47;2052566;28;19930;-73
2022/06/18 05:11:20;;;;;;;;;;;;;;;28.02;50.99;99171.50;2050514;28;20474;-73
2022/06/18 05:12:21;;;;;;;;;;;;;;;28.00;50.97;99162.75;2048150;28;20164;-73
2022/06/18 05:13:23;;;;;;;;;;;;;;;28.00;51.11;99169.06;2050770;28;20168;-73
2022/06/18 05:14:23;;;;;;;;;;;;;;;28.01;51.16;99176.16;2048763;28;19930;-74
2022/06/18 05:15:25;;;;;;;;;;;;;;;28.02;50.90;99168.78;2053810;28;20290;-73
2022/06/18 05:16:27;;;;;;;;;;;;;;;28.00;51.09;99168.22;2050612;28;19949;-74
2022/06/18 05:17:30;;;;;;;;;;;;;;;28.01;51.25;99172.59;2053226;28;20462;-74
2022/06/18 05:18:33;;;;;;;;;;;;;;;28.01;51.41;99172.59;2051107;28;20184;-73
2022/06/18 05:19:35;;;;;;;;;;;;;;;28.01;50.88;99169.88;2050388;28;20011;-73
2022/06/18 05:20:35;;;;;;;;;;;;;;;28.02;51.18;99171.50;2049858;28;19934;-73
2022/06/18 05:21:37;;;;;;;;;;;;;;;28.01;51.27;99170.69;2047845;28;19984;-73
2022/06/18 05:22:37;;;;;;;;;;;;;;;28.00;51.33;99171.78;2053517;28;19933;-73
2022/06/18 05:23:39;;;;;;;;;;;;;;;28.00;51.38;99171.78;2055138;28;20029;-74
2022/06/18 05:24:39;;;;;;;;;;;;;;;28.00;51.06;99174.50;2046672;28;21114;-73
2022/06/18 05:25:41;;;;;;;;;;;;;;;28.01;51.17;99178.06;2053980;28;19930;-74
2022/06/18 05:26:44;;;;;;;;;;;;;;;28.01;51.00;99178.06;2045667;28;19945;-73
2022/06/18 05:27:46;;;;;;;;;;;;;;;28.01;51.15;99173.41;2050566;28;19961;-74
2022/06/18 05:28:47;;;;;;;;;;;;;;;28.02;51.30;99177.78;2053076;28;20041;-74
2022/06/18 05:29:48;;;;;;;;;;;;;;;28.00;51.41;99176.38;2053007;28;20439;-73
2022/06/18 05:30:50;;;;;;;;;;;;;;;28.01;51.33;99178.06;2052919;28;19934;-74